createdAt,value
2023-05-02T00:00:03.352Z,45.07
2023-05-02T00:01:03.085Z,37.46
2023-05-02T00:02:03.104Z,38.96
2023-05-02T00:03:03.165Z,39.93
2023-05-02T00:04:03.172Z,33.45
2023-05-02T00:05:04.028Z,42.46
2023-05-02T00:06:03.111Z,37.69
2023-05-02T00:07:03.046Z,44.05
2023-05-02T00:08:04.051Z,37.25
2023-05-02T00:09:03.132Z,36.88
2023-05-02T00:10:03.422Z,46.72
2023-05-02T00:11:03.086Z,37.99
2023-05-02T00:12:03.102Z,40.20
2023-05-02T00:13:04.095Z,37.52
2023-05-02T00:14:03.171Z,37.49
2023-05-02T00:15:03.167Z,43.36
2023-05-02T00:16:04.117Z,41.36
2023-05-02T00:17:03.185Z,37.20
2023-05-02T00:18:04.181Z,41.49
2023-05-02T00:19:04.137Z,39.47
2023-05-02T00:20:04.215Z,40.59
2023-05-02T00:21:03.149Z,36.48
2023-05-02T00:22:04.158Z,34.75
2023-05-02T00:23:03.185Z,37.98
2023-05-02T00:24:04.189Z,40.21
2023-05-02T00:25:04.196Z,40.50
2023-05-02T00:26:04.203Z,40.04
2023-05-02T00:27:04.188Z,42.06
2023-05-02T00:28:03.215Z,42.81
2023-05-02T00:29:04.210Z,41.27
2023-05-02T00:30:03.476Z,42.13
2023-05-02T00:31:03.342Z,35.55
2023-05-02T00:32:04.244Z,43.38
2023-05-02T00:33:04.348Z,45.78
2023-05-02T00:34:04.289Z,38.74
2023-05-02T00:35:04.309Z,40.55
2023-05-02T00:36:04.307Z,43.59
2023-05-02T00:37:04.361Z,37.20
2023-05-02T00:38:04.298Z,37.69
2023-05-02T00:39:04.326Z,45.55
2023-05-02T00:40:04.329Z,36.15
2023-05-02T00:41:04.335Z,43.48
2023-05-02T00:42:04.370Z,44.27
2023-05-02T00:43:03.357Z,43.48
2023-05-02T00:44:03.384Z,38.87
2023-05-02T00:45:04.414Z,38.04
2023-05-02T00:46:03.415Z,38.46
2023-05-02T00:47:04.420Z,38.77
2023-05-02T00:48:03.425Z,37.67
2023-05-02T00:49:03.398Z,32.91
2023-05-02T00:50:04.447Z,38.48
2023-05-02T00:51:04.432Z,37.76
2023-05-02T00:52:03.463Z,39.98
2023-05-02T00:53:04.485Z,40.73
2023-05-02T00:54:03.481Z,32.96
2023-05-02T00:55:04.537Z,42.42
2023-05-02T00:56:03.704Z,40.00
2023-05-02T00:57:03.529Z,40.32
2023-05-02T00:58:04.517Z,40.72
2023-05-02T00:59:04.548Z,43.70
2023-05-02T01:00:04.614Z,40.06
2023-05-02T01:01:03.610Z,39.15
2023-05-02T01:02:03.631Z,44.67
2023-05-02T01:03:05.453Z,29.58
2023-05-02T01:04:04.763Z,37.26
2023-05-02T01:05:03.667Z,36.42
2023-05-02T01:06:04.774Z,39.80
2023-05-02T01:07:04.708Z,38.09
2023-05-02T01:08:03.682Z,34.99
2023-05-02T01:09:04.728Z,43.20
2023-05-02T01:10:04.785Z,41.67
2023-05-02T01:11:05.311Z,34.87
2023-05-02T01:12:04.747Z,44.40
2023-05-02T01:13:04.766Z,38.92
2023-05-02T01:14:04.780Z,46.00
2023-05-02T01:15:03.780Z,40.46
2023-05-02T01:16:03.864Z,38.03
2023-05-02T01:17:04.823Z,36.20
2023-05-02T01:18:04.891Z,44.61
2023-05-02T01:19:03.856Z,36.99
2023-05-02T01:20:03.923Z,38.87
2023-05-02T01:21:04.849Z,41.96
2023-05-02T01:22:04.859Z,40.60
2023-05-02T01:23:04.887Z,43.94
2023-05-02T01:24:03.855Z,36.15
2023-05-02T01:25:04.891Z,36.87
2023-05-02T01:26:03.882Z,38.21
2023-05-02T01:27:03.908Z,27.29
2023-05-02T01:28:04.917Z,39.43
2023-05-02T01:29:04.932Z,27.78
2023-05-02T01:30:04.978Z,30.21
2023-05-02T01:31:03.961Z,34.78
2023-05-02T01:32:05.017Z,34.04
2023-05-02T01:33:05.017Z,43.07
2023-05-02T01:34:05.014Z,37.21
2023-05-02T01:35:05.077Z,41.01
2023-05-02T01:36:05.075Z,37.81
2023-05-02T01:37:05.025Z,39.72
2023-05-02T01:38:04.050Z,47.57
2023-05-02T01:39:05.075Z,34.40
2023-05-02T01:40:04.108Z,31.69
2023-05-02T01:41:05.087Z,33.82
2023-05-02T01:42:04.118Z,32.04
2023-05-02T01:43:04.108Z,34.41
2023-05-02T01:44:04.119Z,44.15
2023-05-02T01:45:04.135Z,37.60
2023-05-02T01:46:05.144Z,32.70
2023-05-02T01:47:04.164Z,37.28
2023-05-02T01:48:04.202Z,34.81
2023-05-02T01:49:04.191Z,35.43
2023-05-02T01:50:05.206Z,43.16
2023-05-02T01:51:05.207Z,36.52
2023-05-02T01:52:05.192Z,31.71
2023-05-02T01:53:04.206Z,41.49
2023-05-02T01:54:04.208Z,37.24
2023-05-02T01:55:05.245Z,36.08
2023-05-02T01:56:04.212Z,37.79
2023-05-02T01:57:05.219Z,40.16
2023-05-02T01:58:05.228Z,35.94
2023-05-02T01:59:05.223Z,41.69
2023-05-02T02:00:05.341Z,39.69
2023-05-02T02:01:05.969Z,34.17
2023-05-02T02:02:04.268Z,28.91
2023-05-02T02:03:05.283Z,38.33
2023-05-02T02:04:05.643Z,38.53
2023-05-02T02:05:05.301Z,42.11
2023-05-02T02:06:04.395Z,32.80
2023-05-02T02:07:05.314Z,37.54
2023-05-02T02:08:05.309Z,35.40
2023-05-02T02:09:05.329Z,37.28
2023-05-02T02:10:05.385Z,37.37
2023-05-02T02:11:04.368Z,36.04
2023-05-02T02:12:05.358Z,36.21
2023-05-02T02:13:04.372Z,35.32
2023-05-02T02:14:05.395Z,40.14
2023-05-02T02:15:05.412Z,41.39
2023-05-02T02:16:05.414Z,36.65
2023-05-02T02:17:04.493Z,36.49
2023-05-02T02:18:04.487Z,35.39
2023-05-02T02:19:05.453Z,42.64
2023-05-02T02:20:05.499Z,35.74
2023-05-02T02:21:05.458Z,34.99
2023-05-02T02:22:04.469Z,37.39
2023-05-02T02:23:05.492Z,34.86
2023-05-02T02:24:05.482Z,38.67
2023-05-02T02:25:05.503Z,38.95
2023-05-02T02:26:05.493Z,29.58
2023-05-02T02:27:05.487Z,36.69
2023-05-02T02:28:04.511Z,37.31
2023-05-02T02:29:04.561Z,33.03
2023-05-02T02:30:04.528Z,33.33
2023-05-02T02:31:05.611Z,30.87
2023-05-02T02:32:04.576Z,31.31
2023-05-02T02:33:04.577Z,32.98
2023-05-02T02:34:04.576Z,29.23
2023-05-02T02:35:04.540Z,39.78
2023-05-02T02:36:04.576Z,38.15
2023-05-02T02:37:04.589Z,36.55
2023-05-02T02:38:05.575Z,36.53
2023-05-02T02:39:05.594Z,38.92
2023-05-02T02:40:05.597Z,39.07
2023-05-02T02:41:04.620Z,32.81
2023-05-02T02:42:05.635Z,33.64
2023-05-02T02:43:05.616Z,34.03
2023-05-02T02:44:04.610Z,42.39
2023-05-02T02:45:04.691Z,35.06
2023-05-02T02:46:05.725Z,41.23
2023-05-02T02:47:05.672Z,37.36
2023-05-02T02:48:04.690Z,29.95
2023-05-02T02:49:04.665Z,39.77
2023-05-02T02:50:05.668Z,35.75
2023-05-02T02:51:04.686Z,37.72
2023-05-02T02:52:05.681Z,28.88
2023-05-02T02:53:05.733Z,38.22
2023-05-02T02:54:15.491Z,36.66
2023-05-02T02:55:05.732Z,36.92
2023-05-02T02:56:04.688Z,37.25
2023-05-02T02:57:05.671Z,37.31
2023-05-02T02:58:05.691Z,38.23
2023-05-02T02:59:04.673Z,40.28
2023-05-02T03:00:05.678Z,35.40
2023-05-02T03:01:05.650Z,35.24
2023-05-02T03:02:04.667Z,34.43
2023-05-02T03:03:05.642Z,37.23
2023-05-02T03:04:05.669Z,27.22
2023-05-02T03:05:05.620Z,32.17
2023-05-02T03:06:05.705Z,33.44
2023-05-02T03:07:04.630Z,32.04
2023-05-02T03:08:04.612Z,34.86
2023-05-02T03:09:04.620Z,34.33
2023-05-02T03:10:04.613Z,30.94
2023-05-02T03:11:04.607Z,31.08
2023-05-02T03:12:04.569Z,38.37
2023-05-02T03:13:04.570Z,33.78
2023-05-02T03:14:04.576Z,38.22
2023-05-02T03:15:05.553Z,38.48
2023-05-02T03:16:05.592Z,33.15
2023-05-02T03:17:05.584Z,30.80
2023-05-02T03:18:04.570Z,32.68
2023-05-02T03:19:04.514Z,40.20
2023-05-02T03:20:05.507Z,33.93
2023-05-02T03:21:04.510Z,32.10
2023-05-02T03:22:05.524Z,33.15
2023-05-02T03:23:05.506Z,30.02
2023-05-02T03:24:04.561Z,34.13
2023-05-02T03:25:04.475Z,33.80
2023-05-02T03:26:05.482Z,35.22
2023-05-02T03:27:05.530Z,35.12
2023-05-02T03:28:04.448Z,33.64
2023-05-02T03:29:04.465Z,33.12
2023-05-02T03:30:05.464Z,35.65
2023-05-02T03:31:05.503Z,32.91
2023-05-02T03:32:05.549Z,33.13
2023-05-02T03:33:04.458Z,39.85
2023-05-02T03:34:04.415Z,35.56
2023-05-02T03:35:05.424Z,35.69
2023-05-02T03:36:05.432Z,33.83
2023-05-02T03:37:05.408Z,36.27
2023-05-02T03:38:04.441Z,33.37
2023-05-02T03:39:04.399Z,31.02
2023-05-02T03:40:05.383Z,33.82
2023-05-02T03:41:05.377Z,38.37
2023-05-02T03:42:04.377Z,38.84
2023-05-02T03:43:04.368Z,32.63
2023-05-02T03:44:05.364Z,33.96
2023-05-02T03:45:04.385Z,30.00
2023-05-02T03:46:05.345Z,32.96
2023-05-02T03:47:05.465Z,37.14
2023-05-02T03:48:04.388Z,31.79
2023-05-02T03:49:05.731Z,31.22
2023-05-02T03:50:05.320Z,35.71
2023-05-02T03:51:05.304Z,30.76
2023-05-02T03:52:05.300Z,36.07
2023-05-02T03:53:05.320Z,28.98
2023-05-02T03:54:05.280Z,28.43
2023-05-02T03:55:05.260Z,29.73
2023-05-02T03:56:05.265Z,35.60
2023-05-02T03:57:05.261Z,32.34
2023-05-02T03:58:05.262Z,35.08
2023-05-02T03:59:04.273Z,36.81
2023-05-02T04:00:04.255Z,39.24
2023-05-02T04:01:05.222Z,30.58
2023-05-02T04:02:05.285Z,29.16
2023-05-02T04:03:05.306Z,40.54
2023-05-02T04:04:05.276Z,35.53
2023-05-02T04:05:05.253Z,34.47
2023-05-02T04:06:05.303Z,32.38
2023-05-02T04:07:05.200Z,31.11
2023-05-02T04:08:05.182Z,39.20
2023-05-02T04:09:05.178Z,36.41
2023-05-02T04:10:05.165Z,36.69
2023-05-02T04:11:04.175Z,32.11
2023-05-02T04:12:04.158Z,34.03
2023-05-02T04:13:05.164Z,37.75
2023-05-02T04:14:05.171Z,27.13
2023-05-02T04:15:04.291Z,28.52
2023-05-02T04:16:04.204Z,29.97
2023-05-02T04:17:04.381Z,27.77
2023-05-02T04:18:04.387Z,36.92
2023-05-02T04:19:05.209Z,30.94
2023-05-02T04:20:05.498Z,31.22
2023-05-02T04:21:05.243Z,34.75
2023-05-02T04:22:05.244Z,31.23
2023-05-02T04:23:05.276Z,31.43
2023-05-02T04:24:04.275Z,30.96
2023-05-02T04:25:04.284Z,29.93
2023-05-02T04:26:05.303Z,34.79
2023-05-02T04:27:04.335Z,31.24
2023-05-02T04:28:04.324Z,33.82
2023-05-02T04:29:05.328Z,29.50
2023-05-02T04:30:04.340Z,37.93
2023-05-02T04:31:05.470Z,34.74
2023-05-02T04:32:05.416Z,37.66
2023-05-02T04:33:04.402Z,31.43
2023-05-02T04:34:05.447Z,29.92
2023-05-02T04:35:04.431Z,33.09
2023-05-02T04:36:05.525Z,50.76
2023-05-02T04:37:05.436Z,49.42
2023-05-02T04:38:05.481Z,50.58
2023-05-02T04:39:04.496Z,41.53
2023-05-02T04:40:05.531Z,37.24
2023-05-02T04:41:08.905Z,38.16
2023-05-02T04:42:04.519Z,38.31
2023-05-02T04:43:05.551Z,38.56
2023-05-02T04:44:05.520Z,27.58
2023-05-02T04:45:05.484Z,31.43
2023-05-02T04:46:05.515Z,37.88
2023-05-02T04:47:04.547Z,37.04
2023-05-02T04:48:05.514Z,32.26
2023-05-02T04:49:05.465Z,36.78
2023-05-02T04:50:05.477Z,28.55
2023-05-02T04:51:05.453Z,35.55
2023-05-02T04:52:05.439Z,35.95
2023-05-02T04:53:05.444Z,29.32
2023-05-02T04:54:05.462Z,35.29
2023-05-02T04:55:05.438Z,31.42
2023-05-02T04:56:05.442Z,35.96
2023-05-02T04:57:04.450Z,25.00
2023-05-02T04:58:05.405Z,32.34
2023-05-02T04:59:05.402Z,37.22
2023-05-02T05:00:05.395Z,37.64
2023-05-02T05:01:05.453Z,30.75
2023-05-02T05:02:04.584Z,37.77
2023-05-02T05:03:04.604Z,29.51
2023-05-02T05:04:04.536Z,40.95
2023-05-02T05:05:04.583Z,33.73
2023-05-02T05:06:04.570Z,37.53
2023-05-02T05:07:05.900Z,35.95
2023-05-02T05:08:05.515Z,28.55
2023-05-02T05:09:05.546Z,35.86
2023-05-02T05:10:05.570Z,32.03
2023-05-02T05:11:04.568Z,33.57
2023-05-02T05:12:06.271Z,37.82
2023-05-02T05:13:06.356Z,27.52
2023-05-02T05:14:05.806Z,36.58
2023-05-02T05:15:05.712Z,35.58
2023-05-02T05:16:05.712Z,42.32
2023-05-02T05:17:04.664Z,33.20
2023-05-02T05:18:05.771Z,33.63
2023-05-02T05:19:05.713Z,37.39
2023-05-02T05:20:04.754Z,31.50
2023-05-02T05:21:04.762Z,38.30
2023-05-02T05:22:04.813Z,36.92
2023-05-02T05:23:05.832Z,42.91
2023-05-02T05:24:04.913Z,43.60
2023-05-02T05:25:05.004Z,49.84
2023-05-02T05:26:05.916Z,48.52
2023-05-02T05:27:05.961Z,50.86
2023-05-02T05:28:05.010Z,52.70
2023-05-02T05:29:06.098Z,51.22
2023-05-02T05:30:05.056Z,48.69
2023-05-02T05:31:06.154Z,49.53
2023-05-02T05:32:06.384Z,58.47
2023-05-02T05:33:05.253Z,53.17
2023-05-02T05:34:06.305Z,61.54
2023-05-02T05:35:07.492Z,60.60
2023-05-02T05:36:06.698Z,67.56
2023-05-02T05:37:05.519Z,63.85
2023-05-02T05:38:06.469Z,65.73
2023-05-02T05:39:06.819Z,68.81
2023-05-02T05:40:07.985Z,65.14
2023-05-02T05:41:06.856Z,67.47
2023-05-02T05:42:07.624Z,67.70
2023-05-02T05:43:07.008Z,68.49
2023-05-02T05:44:06.720Z,68.05
2023-05-02T05:45:07.036Z,73.88
2023-05-02T05:46:07.202Z,83.67
2023-05-02T05:47:05.797Z,80.87
2023-05-02T05:48:06.721Z,82.97
2023-05-02T05:49:07.220Z,83.40
2023-05-02T05:50:06.822Z,86.30
2023-05-02T05:51:06.779Z,86.99
2023-05-02T05:52:07.661Z,92.90
2023-05-02T05:53:06.710Z,95.88
2023-05-02T05:54:06.535Z,98.43
2023-05-02T05:55:06.388Z,100.64
2023-05-02T05:56:07.580Z,103.72
2023-05-02T05:57:06.713Z,105.54
2023-05-02T05:58:06.705Z,112.32
2023-05-02T05:59:06.964Z,118.74
2023-05-02T06:00:06.662Z,120.67
2023-05-02T06:01:07.682Z,122.02
2023-05-02T06:02:07.838Z,127.34
2023-05-02T06:03:08.083Z,131.54
2023-05-02T06:04:05.832Z,131.87
2023-05-02T06:05:07.261Z,132.02
2023-05-02T06:06:06.786Z,129.37
2023-05-02T06:07:05.714Z,128.05
2023-05-02T06:08:06.695Z,120.42
2023-05-02T06:09:05.701Z,112.52
2023-05-02T06:10:05.751Z,116.06
2023-05-02T06:11:05.653Z,122.24
2023-05-02T06:12:06.683Z,119.58
2023-05-02T06:13:06.677Z,116.87
2023-05-02T06:14:05.656Z,117.01
2023-05-02T06:15:05.657Z,109.00
2023-05-02T06:16:05.682Z,115.60
2023-05-02T06:17:06.633Z,113.99
2023-05-02T06:18:06.646Z,118.42
2023-05-02T06:19:12.622Z,117.31
2023-05-02T06:20:05.581Z,117.73
2023-05-02T06:21:05.631Z,117.86
2023-05-02T06:22:05.638Z,118.62
2023-05-02T06:23:06.574Z,118.67
2023-05-02T06:24:06.558Z,114.02
2023-05-02T06:25:06.587Z,123.66
2023-05-02T06:26:05.599Z,122.25
2023-05-02T06:27:05.564Z,119.38
2023-05-02T06:28:05.537Z,121.14
2023-05-02T06:29:05.541Z,123.28
2023-05-02T06:30:06.531Z,119.24
2023-05-02T06:31:05.553Z,119.13
2023-05-02T06:32:06.720Z,119.23
2023-05-02T06:33:06.533Z,120.04
2023-05-02T06:34:06.502Z,123.11
2023-05-02T06:35:06.502Z,118.90
2023-05-02T06:36:06.478Z,115.36
2023-05-02T06:37:06.483Z,120.26
2023-05-02T06:38:06.487Z,123.05
2023-05-02T06:39:05.461Z,127.52
2023-05-02T06:40:05.480Z,123.80
2023-05-02T06:41:05.461Z,126.16
2023-05-02T06:42:06.451Z,123.28
2023-05-02T06:43:05.430Z,129.42
2023-05-02T06:44:05.424Z,121.85
2023-05-02T06:45:05.412Z,128.11
2023-05-02T06:46:05.409Z,127.35
2023-05-02T06:47:06.484Z,131.36
2023-05-02T06:48:06.447Z,126.84
2023-05-02T06:49:06.400Z,128.32
2023-05-02T06:50:06.377Z,133.33
2023-05-02T06:51:05.390Z,143.96
2023-05-02T06:52:05.487Z,154.31
2023-05-02T06:53:06.362Z,154.23
2023-05-02T06:54:06.400Z,171.53
2023-05-02T06:55:06.349Z,199.48
2023-05-02T06:56:06.341Z,199.08
2023-05-02T06:57:05.500Z,214.79
2023-05-02T06:58:06.337Z,208.74
2023-05-02T06:59:06.329Z,237.76
2023-05-02T07:00:06.310Z,245.59
2023-05-02T07:01:06.385Z,247.44
2023-05-02T07:02:06.376Z,232.92
2023-05-02T07:03:06.452Z,209.52
2023-05-02T07:04:06.489Z,194.62
2023-05-02T07:05:05.467Z,184.16
2023-05-02T07:06:06.589Z,172.42
2023-05-02T07:07:06.560Z,168.84
2023-05-02T07:08:06.568Z,156.32
2023-05-02T07:09:06.619Z,156.08
2023-05-02T07:10:05.642Z,159.60
2023-05-02T07:11:05.615Z,147.59
2023-05-02T07:12:06.953Z,154.67
2023-05-02T07:13:05.662Z,154.25
2023-05-02T07:14:06.674Z,157.04
2023-05-02T07:15:06.680Z,147.16
2023-05-02T07:16:05.706Z,153.32
2023-05-02T07:17:05.831Z,150.57
2023-05-02T07:18:05.767Z,161.30
2023-05-02T07:19:05.751Z,137.85
2023-05-02T07:20:05.915Z,143.54
2023-05-02T07:21:06.816Z,137.75
2023-05-02T07:22:05.852Z,146.46
2023-05-02T07:23:06.894Z,144.16
2023-05-02T07:24:06.960Z,153.19
2023-05-02T07:25:06.947Z,149.02
2023-05-02T07:26:07.043Z,134.72
2023-05-02T07:27:07.040Z,133.89
2023-05-02T07:28:07.081Z,128.89
2023-05-02T07:29:07.115Z,123.10
2023-05-02T07:30:06.151Z,113.48
2023-05-02T07:31:07.223Z,145.72
2023-05-02T07:32:07.346Z,161.86
2023-05-02T07:33:07.367Z,183.58
2023-05-02T07:34:06.363Z,173.49
2023-05-02T07:35:06.392Z,162.31
2023-05-02T07:36:07.452Z,148.97
2023-05-02T07:37:06.508Z,139.84
2023-05-02T07:38:06.562Z,134.81
2023-05-02T07:39:06.643Z,133.13
2023-05-02T07:40:07.680Z,140.53
2023-05-02T07:41:06.719Z,128.54
2023-05-02T07:42:07.808Z,137.48
2023-05-02T07:43:09.876Z,119.27
2023-05-02T07:44:07.823Z,119.57
2023-05-02T07:45:07.831Z,121.84
2023-05-02T07:46:06.936Z,131.43
2023-05-02T07:47:06.795Z,147.83
2023-05-02T07:48:07.060Z,179.53
2023-05-02T07:49:07.792Z,193.99
2023-05-02T07:50:07.790Z,206.57
2023-05-02T07:51:07.796Z,223.11
2023-05-02T07:52:07.789Z,231.88
2023-05-02T07:53:08.017Z,240.78
2023-05-02T07:54:07.754Z,246.84
2023-05-02T07:55:07.750Z,245.53
2023-05-02T07:56:06.737Z,240.83
2023-05-02T07:57:07.739Z,215.62
2023-05-02T07:58:06.821Z,204.05
2023-05-02T07:59:07.734Z,205.14
2023-05-02T08:00:07.727Z,207.95
2023-05-02T08:01:07.736Z,207.54
2023-05-02T08:02:07.745Z,197.38
2023-05-02T08:03:07.823Z,192.46
2023-05-02T08:04:07.866Z,168.84
2023-05-02T08:05:07.859Z,167.72
2023-05-02T08:06:07.797Z,158.91
2023-05-02T08:07:06.660Z,272.08
2023-05-02T08:08:07.653Z,297.54
2023-05-02T08:09:07.662Z,247.17
2023-05-02T08:10:07.625Z,230.62
2023-05-02T08:11:06.647Z,233.53
2023-05-02T08:12:06.699Z,237.01
2023-05-02T08:13:06.768Z,237.03
2023-05-02T08:14:06.829Z,236.71
2023-05-02T08:15:07.871Z,235.90
2023-05-02T08:16:06.983Z,219.92
2023-05-02T08:17:07.997Z,197.72
2023-05-02T08:18:08.080Z,182.62
2023-05-02T08:19:08.108Z,167.56
2023-05-02T08:20:07.148Z,164.78
2023-05-02T08:21:07.187Z,163.43
2023-05-02T08:22:08.245Z,157.64
2023-05-02T08:23:07.313Z,155.99
2023-05-02T08:24:07.381Z,159.31
2023-05-02T08:25:07.439Z,163.44
2023-05-02T08:26:07.466Z,149.60
2023-05-02T08:27:08.536Z,148.18
2023-05-02T08:28:08.582Z,136.86
2023-05-02T08:29:07.634Z,132.56
2023-05-02T08:30:08.019Z,127.65
2023-05-02T08:31:08.814Z,120.02
2023-05-02T08:32:08.826Z,131.02
2023-05-02T08:33:07.893Z,125.84
2023-05-02T08:34:08.906Z,131.89
2023-05-02T08:35:08.983Z,121.92
2023-05-02T08:36:09.029Z,125.30
2023-05-02T08:37:09.104Z,127.87
2023-05-02T08:38:09.137Z,125.96
2023-05-02T08:39:09.204Z,123.28
2023-05-02T08:40:08.242Z,120.65
2023-05-02T08:41:09.296Z,122.63
2023-05-02T08:42:09.328Z,136.00
2023-05-02T08:43:09.541Z,148.22
2023-05-02T08:44:09.393Z,199.17
2023-05-02T08:45:09.435Z,231.99
2023-05-02T08:46:08.496Z,250.09
2023-05-02T08:47:11.618Z,246.05
2023-05-02T08:48:09.570Z,231.61
2023-05-02T08:49:08.468Z,227.83
2023-05-02T08:50:08.459Z,228.37
2023-05-02T08:51:08.444Z,212.57
2023-05-02T08:52:09.442Z,197.37
2023-05-02T08:53:08.450Z,179.30
2023-05-02T08:54:09.422Z,142.62
2023-05-02T08:55:09.429Z,152.17
2023-05-02T08:56:08.415Z,161.18
2023-05-02T08:57:09.402Z,171.32
2023-05-02T08:58:09.589Z,180.21
2023-05-02T08:59:08.400Z,187.63
2023-05-02T09:00:08.383Z,216.35
2023-05-02T09:01:09.409Z,215.51
2023-05-02T09:02:08.382Z,216.70
2023-05-02T09:03:09.419Z,214.32
2023-05-02T09:04:09.389Z,204.66
2023-05-02T09:05:08.359Z,194.98
2023-05-02T09:06:09.401Z,187.42
2023-05-02T09:07:08.727Z,183.69
2023-05-02T09:08:09.322Z,181.26
2023-05-02T09:09:09.310Z,174.98
2023-05-02T09:10:09.304Z,171.66
2023-05-02T09:11:08.300Z,168.63
2023-05-02T09:12:08.303Z,165.97
2023-05-02T09:13:09.277Z,161.64
2023-05-02T09:14:09.262Z,162.38
2023-05-02T09:15:08.289Z,158.74
2023-05-02T09:16:09.281Z,154.08
2023-05-02T09:17:09.475Z,152.16
2023-05-02T09:18:09.330Z,153.78
2023-05-02T09:19:08.245Z,152.30
2023-05-02T09:20:09.223Z,150.25
2023-05-02T09:21:09.220Z,154.03
2023-05-02T09:22:08.219Z,152.06
2023-05-02T09:23:08.203Z,151.44
2023-05-02T09:24:09.203Z,147.69
2023-05-02T09:25:08.194Z,149.10
2023-05-02T09:26:09.189Z,150.78
2023-05-02T09:27:09.196Z,152.68
2023-05-02T09:28:09.214Z,156.51
2023-05-02T09:29:09.226Z,153.12
2023-05-02T09:30:09.249Z,154.66
2023-05-02T09:31:09.365Z,156.30
2023-05-02T09:32:09.357Z,151.71
2023-05-02T09:33:08.347Z,155.13
2023-05-02T09:34:08.622Z,153.34
2023-05-02T09:35:09.330Z,156.71
2023-05-02T09:36:08.390Z,157.47
2023-05-02T09:37:09.381Z,152.20
2023-05-02T09:38:08.394Z,157.52
2023-05-02T09:39:08.411Z,154.61
2023-05-02T09:40:08.441Z,158.99
2023-05-02T09:41:08.446Z,160.23
2023-05-02T09:42:09.476Z,148.81
2023-05-02T09:43:09.492Z,150.46
2023-05-02T09:44:09.517Z,154.47
2023-05-02T09:45:08.542Z,151.89
2023-05-02T09:46:08.599Z,153.83
2023-05-02T09:47:09.621Z,161.41
2023-05-02T09:48:09.069Z,162.03
2023-05-02T09:49:09.735Z,155.96
2023-05-02T09:50:09.797Z,154.42
2023-05-02T09:51:08.735Z,156.14
2023-05-02T09:52:08.824Z,161.15
2023-05-02T09:53:09.904Z,167.87
2023-05-02T09:54:09.799Z,171.64
2023-05-02T09:55:08.833Z,178.42
2023-05-02T09:56:08.913Z,196.18
2023-05-02T09:57:08.963Z,194.74
2023-05-02T09:58:09.046Z,190.57
2023-05-02T09:59:09.041Z,191.66
2023-05-02T10:00:10.084Z,182.52
2023-05-02T10:01:09.144Z,185.55
2023-05-02T10:02:09.159Z,184.26
2023-05-02T10:03:10.246Z,176.33
2023-05-02T10:04:10.275Z,178.10
2023-05-02T10:05:10.259Z,173.60
2023-05-02T10:06:10.359Z,173.08
2023-05-02T10:07:09.342Z,167.96
2023-05-02T10:08:09.366Z,167.93
2023-05-02T10:09:10.367Z,167.41
2023-05-02T10:10:10.379Z,167.34
2023-05-02T10:11:10.410Z,169.13
2023-05-02T10:12:10.444Z,169.82
2023-05-02T10:13:10.561Z,164.92
2023-05-02T10:14:09.474Z,163.93
2023-05-02T10:15:09.504Z,161.57
2023-05-02T10:16:09.573Z,163.28
2023-05-02T10:17:09.534Z,166.22
2023-05-02T10:18:10.627Z,162.18
2023-05-02T10:19:10.584Z,166.12
2023-05-02T10:20:10.624Z,166.33
2023-05-02T10:21:09.629Z,162.31
2023-05-02T10:22:10.676Z,161.37
2023-05-02T10:23:09.672Z,159.57
2023-05-02T10:24:10.691Z,156.66
2023-05-02T10:25:10.730Z,160.45
2023-05-02T10:26:10.731Z,158.50
2023-05-02T10:27:10.768Z,157.07
2023-05-02T10:28:10.782Z,154.84
2023-05-02T10:29:10.832Z,156.07
2023-05-02T10:30:10.831Z,150.47
2023-05-02T10:31:09.877Z,159.61
2023-05-02T10:32:10.838Z,156.30
2023-05-02T10:33:10.918Z,152.36
2023-05-02T10:34:10.884Z,155.21
2023-05-02T10:35:10.890Z,157.09
2023-05-02T10:36:10.918Z,150.58
2023-05-02T10:37:09.935Z,149.64
2023-05-02T10:38:10.961Z,155.11
2023-05-02T10:39:10.920Z,153.86
2023-05-02T10:40:10.921Z,156.42
2023-05-02T10:41:09.949Z,161.21
2023-05-02T10:42:11.002Z,154.03
2023-05-02T10:43:10.066Z,133.22
2023-05-02T10:44:11.597Z,130.17
2023-05-02T10:45:11.226Z,128.33
2023-05-02T10:46:10.272Z,133.12
2023-05-02T10:47:11.304Z,136.58
2023-05-02T10:48:10.409Z,139.16
2023-05-02T10:49:10.392Z,139.88
2023-05-02T10:50:10.396Z,140.48
2023-05-02T10:51:11.428Z,140.42
2023-05-02T10:52:10.473Z,146.01
2023-05-02T10:53:10.488Z,143.05
2023-05-02T10:54:11.534Z,143.27
2023-05-02T10:55:10.561Z,146.26
2023-05-02T10:56:11.579Z,144.45
2023-05-02T10:57:11.606Z,143.34
2023-05-02T10:58:11.633Z,143.80
2023-05-02T10:59:11.678Z,150.45
2023-05-02T11:00:11.693Z,148.39
2023-05-02T11:01:11.792Z,148.61
2023-05-02T11:02:11.845Z,149.19
2023-05-02T11:03:11.987Z,158.39
2023-05-02T11:04:11.839Z,149.74
2023-05-02T11:05:11.881Z,155.76
2023-05-02T11:06:10.934Z,151.67
2023-05-02T11:07:11.933Z,147.22
2023-05-02T11:08:11.963Z,149.71
2023-05-02T11:09:10.970Z,149.31
2023-05-02T11:10:12.046Z,146.92
2023-05-02T11:11:12.015Z,149.87
2023-05-02T11:12:12.031Z,146.84
2023-05-02T11:13:11.089Z,136.47
2023-05-02T11:14:11.103Z,135.51
2023-05-02T11:15:14.162Z,138.51
2023-05-02T11:16:12.195Z,139.95
2023-05-02T11:17:12.148Z,159.36
2023-05-02T11:18:12.228Z,158.43
2023-05-02T11:19:12.113Z,149.16
2023-05-02T11:20:12.117Z,151.15
2023-05-02T11:21:12.095Z,152.43
2023-05-02T11:22:12.096Z,152.70
2023-05-02T11:23:12.099Z,147.56
2023-05-02T11:24:12.085Z,147.31
2023-05-02T11:25:12.053Z,154.35
2023-05-02T11:26:12.128Z,148.01
2023-05-02T11:27:12.050Z,147.78
2023-05-02T11:28:12.036Z,147.20
2023-05-02T11:29:12.040Z,155.28
2023-05-02T11:30:12.040Z,150.33
2023-05-02T11:31:12.018Z,153.70
2023-05-02T11:32:12.058Z,155.97
2023-05-02T11:33:12.112Z,156.28
2023-05-02T11:34:11.010Z,161.38
2023-05-02T11:35:11.978Z,158.34
2023-05-02T11:36:11.993Z,162.58
2023-05-02T11:37:10.965Z,159.47
2023-05-02T11:38:11.977Z,168.17
2023-05-02T11:39:12.100Z,170.89
2023-05-02T11:40:11.993Z,171.19
2023-05-02T11:41:11.948Z,179.24
2023-05-02T11:42:11.961Z,176.53
2023-05-02T11:43:11.949Z,172.37
2023-05-02T11:44:11.942Z,164.96
2023-05-02T11:45:11.919Z,172.10
2023-05-02T11:46:10.922Z,171.36
2023-05-02T11:47:11.949Z,166.04
2023-05-02T11:48:11.974Z,162.49
2023-05-02T11:49:12.724Z,159.69
2023-05-02T11:50:11.920Z,162.04
2023-05-02T11:51:10.897Z,156.24
2023-05-02T11:52:10.986Z,155.05
2023-05-02T11:53:10.878Z,153.66
2023-05-02T11:54:11.877Z,160.42
2023-05-02T11:55:11.920Z,161.04
2023-05-02T11:56:10.866Z,154.71
2023-05-02T11:57:10.865Z,160.10
2023-05-02T11:58:10.856Z,157.30
2023-05-02T11:59:11.820Z,155.44
2023-05-02T12:00:11.870Z,153.72
2023-05-02T12:01:11.807Z,161.49
2023-05-02T12:02:11.902Z,157.77
2023-05-02T12:03:10.910Z,155.00
2023-05-02T12:04:10.829Z,159.33
2023-05-02T12:05:11.887Z,159.91
2023-05-02T12:06:11.070Z,158.93
2023-05-02T12:07:12.314Z,166.36
2023-05-02T12:08:10.827Z,158.35
2023-05-02T12:09:11.829Z,158.76
2023-05-02T12:10:11.874Z,158.16
2023-05-02T12:11:11.851Z,157.41
2023-05-02T12:12:11.855Z,157.22
2023-05-02T12:13:11.992Z,152.10
2023-05-02T12:14:11.889Z,153.90
2023-05-02T12:15:10.892Z,153.60
2023-05-02T12:16:11.922Z,151.31
2023-05-02T12:17:11.904Z,155.16
2023-05-02T12:18:12.003Z,152.07
2023-05-02T12:19:10.896Z,157.65
2023-05-02T12:20:12.007Z,148.46
2023-05-02T12:21:11.898Z,148.29
2023-05-02T12:22:10.933Z,156.43
2023-05-02T12:23:10.935Z,155.32
2023-05-02T12:24:10.952Z,156.18
2023-05-02T12:25:10.947Z,158.94
2023-05-02T12:26:10.978Z,154.43
2023-05-02T12:27:11.003Z,156.81
2023-05-02T12:28:12.036Z,159.25
2023-05-02T12:29:12.031Z,155.91
2023-05-02T12:30:11.136Z,146.43
2023-05-02T12:31:11.155Z,144.76
2023-05-02T12:32:12.112Z,142.57
2023-05-02T12:33:12.113Z,147.80
2023-05-02T12:34:12.110Z,147.45
2023-05-02T12:35:11.114Z,135.57
2023-05-02T12:36:12.118Z,142.31
2023-05-02T12:37:12.162Z,136.50
2023-05-02T12:38:11.171Z,136.39
2023-05-02T12:39:12.227Z,134.28